TimeMST,TemperatureF,Dew PointF,Humidity,Sea Level PressureIn,VisibilityMPH,Wind Direction,Wind SpeedMPH,Gust SpeedMPH,PrecipitationIn,Events,Conditions,WindDirDegrees,DateUTC
12:53 AM,37.0,19.9,50,30.09,10.0,WNW,5.8,-,N/A,,Clear,300,2012-11-04 06:53:00
1:53 AM,43.0,18.0,37,30.04,10.0,West,19.6,-,N/A,,Clear,280,2012-11-04 07:53:00
1:53 AM,41.0,17.1,38,30.06,10.0,West,10.4,-,N/A,,Clear,280,2012-11-04 08:53:00
2:53 AM,41.0,16.0,36,30.05,10.0,West,16.1,-,N/A,,Clear,280,2012-11-04 09:53:00
3:53 AM,41.0,16.0,36,30.06,10.0,WNW,10.4,-,N/A,,Clear,290,2012-11-04 10:53:00
4:53 AM,44.1,16.0,32,30.08,10.0,WNW,12.7,21.9,N/A,,Clear,300,2012-11-04 11:53:00
5:53 AM,45.0,17.1,33,30.09,10.0,NNW,4.6,-,N/A,,Partly Cloudy,330,2012-11-04 12:53:00
6:53 AM,45.0,17.1,33,30.12,10.0,NW,4.6,-,N/A,,Clear,320,2012-11-04 13:53:00
7:53 AM,46.0,19.0,34,30.16,10.0,WNW,15.0,24.2,N/A,,Clear,290,2012-11-04 14:53:00
8:53 AM,48.9,21.0,33,30.15,10.0,WNW,17.3,24.2,0.00,,Clear,300,2012-11-04 15:53:00
9:53 AM,50.0,23.0,35,30.18,10.0,WNW,18.4,28.8,0.00,Rain,Light Rain,290,2012-11-04 16:53:00
9:54 AM,50.0,23.0,35,30.22,10.0,WNW,17.3,28.8,N/A,,Clear,290,2012-11-04 16:54:00
10:53 AM,52.0,24.1,34,30.16,10.0,NW,18.4,29.9,N/A,,Clear,310,2012-11-04 17:53:00
11:53 AM,54.0,23.0,30,30.13,10.0,NW,18.4,29.9,N/A,,Clear,310,2012-11-04 18:53:00
12:53 PM,54.0,21.9,29,30.09,10.0,NW,27.6,35.7,N/A,,Clear,320,2012-11-04 19:53:00
1:53 PM,54.0,23.0,30,30.11,10.0,NW,13.8,29.9,N/A,,Mostly Cloudy,320,2012-11-04 20:53:00
2:53 PM,54.0,23.0,30,30.12,10.0,NNW,15.0,28.8,N/A,,Overcast,340,2012-11-04 21:53:00
3:53 PM,53.1,23.0,31,30.15,10.0,NNW,15.0,28.8,N/A,,Overcast,340,2012-11-04 22:53:00
4:53 PM,46.9,25.0,42,30.17,10.0,North,12.7,-,N/A,,Clear,10,2012-11-04 23:53:00
5:53 PM,45.0,26.1,48,30.21,10.0,North,13.8,-,0.00,,Scattered Clouds,10,2012-11-05 00:53:00
6:53 PM,43.0,30.0,60,30.24,10.0,North,11.5,19.6,0.00,,Overcast,10,2012-11-05 01:53:00
7:53 PM,43.0,32.0,65,30.25,10.0,North,11.5,-,N/A,,Overcast,360,2012-11-05 02:53:00
8:53 PM,41.0,32.0,70,30.25,10.0,NNW,5.8,-,N/A,,Mostly Cloudy,330,2012-11-05 03:53:00
9:53 PM,39.0,32.0,76,30.26,10.0,NW,5.8,-,N/A,,Partly Cloudy,310,2012-11-05 04:53:00
10:53 PM,35.1,28.9,78,30.27,10.0,WNW,8.1,-,N/A,,Scattered Clouds,290,2012-11-05 05:53:00